Terminal Aerodrome Forecast
Issued by NWS Louisville, KY

Home | Current Version | Previous Version | Text Only | Print | Product List | Glossary On
Versions: 1 2 3 4 5 6 7 8 9 10 11 12 13 14 15 16 17 18
931
FTUS43 KLMK 271142
TAFSDF
TAF
KSDF 271142Z 2712/2818 VRB03KT P6SM SCT050 BKN250
     FM271600 18008KT P6SM VCSH BKN050
     FM272200 18006KT P6SM -SHRA VCTS SCT035CB BKN080
     FM280400 VRB03KT 5SM -SHRA BR BKN035
     FM280700 VRB03KT 5SM BR BKN040=

USA.gov is the U.S. government's official web portal to all federal, state and local government web resources and services.